Terminal Aerodrome Forecast
Issued by NWS

Home | Current Version | Previous Version | Text Only | Print | Product List | Glossary On
Versions: 1 2 3 4 5 6 7 8 9 10 11 12 13
000
FTUS43 KGLD 240542
TAFMCK
TAF
KMCK 240542Z 2406/2506 16013KT P6SM BKN300 WS020/18045KT
     FM241000 15011KT P6SM BKN250 WS020/19035KT
     FM241200 15009KT P6SM BKN250
     FM241300 18010KT P6SM SCT150 SCT250
     FM241500 27013KT P6SM FEW150 SCT280
     FM241700 31015G23KT P6SM SCT280
     FM242300 32009KT P6SM FEW070 SCT150 SCT280
     FM250200 03005KT P6SM BKN110
     FM250500 07006KT P6SM BKN110=

USA.gov is the U.S. government's official web portal to all federal, state and local government web resources and services.